Broadlands, Illinois
Current Conditions -  °F | °C
As of 2:53 AM on Wednesday 22 Oct 2014 (Local Time) from KCMI Reporting Station
Clear Clear  
Wind Chill:   Ceiling: Unl
Heat Index:   Visibility: 10mi
Dew Point:   Wind: 5mph
Humidity: 86%   Direction: 40°NE
Pressure: 30.26"   Gusts: NA
Location:  39.91°N, 87.99°W
Report Text: KCMI 220753Z AUTO 04004KT 10SM CLR 04/02 A3026 RMK AO2 SLP249 T00440022 $
Loading
Personal Weather Stations






























Interactive Weather Map
Tropical Storm Tracking
New forecast layout! Learn more

10-Day Weather Forecast

Advertisements
Track Severe Weather on mobile